createdAt,value
2022-10-10T00:00:26.712Z,87.87
2022-10-10T00:02:56.276Z,87.94
2022-10-10T00:05:25.813Z,88.10
2022-10-10T00:07:55.379Z,87.59
2022-10-10T00:10:25.013Z,87.92
2022-10-10T00:12:57.143Z,87.79
2022-10-10T00:15:26.724Z,87.41
2022-10-10T00:17:56.321Z,87.71
2022-10-10T00:20:26.025Z,87.51
2022-10-10T00:22:55.559Z,87.42
2022-10-10T00:25:25.140Z,87.57
2022-10-10T00:27:57.243Z,87.25
2022-10-10T00:30:26.796Z,87.64
2022-10-10T00:32:56.339Z,87.30
2022-10-10T00:35:25.985Z,87.69
2022-10-10T00:37:55.514Z,87.89
2022-10-10T00:40:25.855Z,88.08
2022-10-10T00:42:58.056Z,88.07
2022-10-10T00:45:31.832Z,88.29
2022-10-10T00:48:04.100Z,88.19
2022-10-10T00:50:35.164Z,87.86
2022-10-10T00:53:07.147Z,88.33
2022-10-10T00:55:37.947Z,88.19
2022-10-10T00:58:11.078Z,88.13
2022-10-10T01:00:40.682Z,88.38
2022-10-10T01:03:10.266Z,88.47
2022-10-10T01:05:40.117Z,88.59
2022-10-10T01:08:10.787Z,88.56
2022-10-10T01:10:47.691Z,88.58
2022-10-10T01:13:27.022Z,88.47
2022-10-10T01:16:02.832Z,88.55
2022-10-10T01:18:39.297Z,88.63
2022-10-10T01:21:26.171Z,88.98
2022-10-10T01:24:17.311Z,89.00
2022-10-10T01:27:11.536Z,89.13
2022-10-10T01:29:45.749Z,89.38
2022-10-10T01:32:18.659Z,89.51
2022-10-10T01:34:58.707Z,89.76
2022-10-10T01:37:34.662Z,89.63
2022-10-10T01:40:07.936Z,89.66
2022-10-10T01:42:42.644Z,90.04
2022-10-10T01:45:14.991Z,90.37
2022-10-10T01:47:44.769Z,90.36
2022-10-10T01:50:15.766Z,90.21
2022-10-10T01:52:55.174Z,90.30
2022-10-10T01:55:32.012Z,90.75
2022-10-10T01:58:17.195Z,90.72
2022-10-10T02:00:53.524Z,90.95
2022-10-10T02:03:27.232Z,90.75
2022-10-10T02:05:59.606Z,90.99
2022-10-10T02:08:33.877Z,91.17
2022-10-10T02:11:05.008Z,91.50
2022-10-10T02:13:39.204Z,91.60
2022-10-10T02:16:16.323Z,91.59
2022-10-10T02:18:48.139Z,91.81
2022-10-10T02:21:18.673Z,92.38
2022-10-10T02:23:51.034Z,92.40
2022-10-10T02:26:21.742Z,92.64
2022-10-10T02:28:54.294Z,92.69
2022-10-10T02:31:31.148Z,92.99
2022-10-10T02:34:04.553Z,93.13
2022-10-10T02:36:34.674Z,93.14
2022-10-10T02:39:05.583Z,93.57
2022-10-10T02:41:36.528Z,93.33
2022-10-10T02:44:06.346Z,93.45
2022-10-10T02:46:38.500Z,93.53
2022-10-10T02:49:10.766Z,93.68
2022-10-10T02:51:40.769Z,93.92
2022-10-10T02:54:10.360Z,94.18
2022-10-10T02:56:39.993Z,94.14
2022-10-10T02:59:09.508Z,94.42
2022-10-10T03:01:41.671Z,94.24
2022-10-10T03:04:11.417Z,94.44
2022-10-10T03:06:41.105Z,95.20
2022-10-10T03:09:10.936Z,95.35
2022-10-10T03:11:40.577Z,95.59
2022-10-10T03:14:10.357Z,95.72
2022-10-10T03:16:42.510Z,96.04
2022-10-10T03:19:12.128Z,96.33
2022-10-10T03:21:41.697Z,96.81
2022-10-10T03:24:11.236Z,97.11
2022-10-10T03:26:40.822Z,97.75
2022-10-10T03:29:10.898Z,97.81
2022-10-10T03:31:43.066Z,98.06
2022-10-10T03:34:12.970Z,97.80
2022-10-10T03:36:42.551Z,98.52
2022-10-10T03:39:12.184Z,98.54
2022-10-10T03:41:41.705Z,98.76
2022-10-10T03:44:11.289Z,98.94
2022-10-10T03:46:43.375Z,99.47
2022-10-10T03:49:12.936Z,99.43
2022-10-10T03:51:42.456Z,100.00
2022-10-10T03:54:12.062Z,100.00
2022-10-10T03:56:41.841Z,100.00
2022-10-10T03:59:11.448Z,100.00
2022-10-10T04:01:43.785Z,100.00
2022-10-10T04:04:13.747Z,100.00
2022-10-10T04:06:43.378Z,100.00
2022-10-10T04:09:12.900Z,100.00
2022-10-10T04:11:43.376Z,100.00
2022-10-10T04:14:12.921Z,100.00
2022-10-10T04:16:45.089Z,100.00
2022-10-10T04:19:15.086Z,100.00
2022-10-10T04:21:44.747Z,100.00
2022-10-10T04:24:14.382Z,100.00
2022-10-10T04:26:43.935Z,100.00
2022-10-10T04:29:13.469Z,100.00
2022-10-10T04:31:45.574Z,100.00
2022-10-10T04:34:15.332Z,100.00
2022-10-10T04:36:44.975Z,100.00
2022-10-10T04:39:14.664Z,100.00
2022-10-10T04:41:44.211Z,100.00
2022-10-10T04:44:13.720Z,100.00
2022-10-10T04:46:46.264Z,100.00
2022-10-10T04:49:15.844Z,100.00
2022-10-10T04:51:45.424Z,100.00
2022-10-10T04:54:14.986Z,100.00
2022-10-10T04:56:45.976Z,100.00
2022-10-10T04:59:15.506Z,100.00
2022-10-10T05:01:47.649Z,100.00
2022-10-10T05:04:17.197Z,100.00
2022-10-10T05:06:46.791Z,100.00
2022-10-10T05:09:16.351Z,100.00
2022-10-10T05:11:45.883Z,100.00
2022-10-10T05:14:15.447Z,100.00
2022-10-10T05:16:47.767Z,100.00
2022-10-10T05:19:17.872Z,100.00
2022-10-10T05:21:47.431Z,100.00
2022-10-10T05:24:17.099Z,100.00
2022-10-10T05:26:46.748Z,100.00
2022-10-10T05:29:16.465Z,100.00
2022-10-10T05:31:48.612Z,100.00
2022-10-10T05:34:18.235Z,100.00
2022-10-10T05:36:47.782Z,100.00
2022-10-10T05:39:17.402Z,100.00
2022-10-10T05:41:46.949Z,100.00
2022-10-10T05:44:16.515Z,100.00
2022-10-10T05:46:48.712Z,100.00
2022-10-10T05:49:18.493Z,100.00
2022-10-10T05:51:48.124Z,100.00
2022-10-10T05:54:17.843Z,100.00
2022-10-10T05:56:47.372Z,100.00
2022-10-10T05:59:16.944Z,100.00
2022-10-10T06:01:49.181Z,100.00
2022-10-10T06:04:18.786Z,100.00
2022-10-10T06:06:48.282Z,100.00
2022-10-10T06:09:17.931Z,100.00
2022-10-10T06:11:47.643Z,100.00
2022-10-10T06:14:17.388Z,100.00
2022-10-10T06:16:49.703Z,100.00
2022-10-10T06:19:19.254Z,100.00
2022-10-10T06:21:48.832Z,100.00
2022-10-10T06:24:18.506Z,100.00
2022-10-10T06:26:48.024Z,100.00
2022-10-10T06:29:17.584Z,100.00
2022-10-10T06:31:49.728Z,100.00
2022-10-10T06:34:19.282Z,100.00
2022-10-10T06:36:49.172Z,100.00
2022-10-10T06:39:18.749Z,100.00
2022-10-10T06:41:48.354Z,100.00
2022-10-10T06:44:21.272Z,100.00
2022-10-10T06:46:53.645Z,100.00
2022-10-10T06:49:23.265Z,100.00
2022-10-10T06:51:52.835Z,100.00
2022-10-10T06:54:22.380Z,100.00
2022-10-10T06:56:52.208Z,100.00
2022-10-10T06:59:21.756Z,100.00
2022-10-10T07:01:53.911Z,100.00
2022-10-10T07:04:23.485Z,100.00
2022-10-10T07:06:53.043Z,100.00
2022-10-10T07:09:22.648Z,100.00
2022-10-10T07:11:52.170Z,100.00
2022-10-10T07:14:21.695Z,100.00
2022-10-10T07:16:53.876Z,100.00
2022-10-10T07:19:25.004Z,100.00
2022-10-10T07:21:54.755Z,100.00
2022-10-10T07:24:24.404Z,100.00
2022-10-10T07:27:03.494Z,100.00
2022-10-10T07:29:34.722Z,100.00
2022-10-10T07:32:07.130Z,100.00
2022-10-10T07:34:39.698Z,100.00
2022-10-10T07:37:10.565Z,100.00
2022-10-10T07:39:40.251Z,100.00
2022-10-10T07:42:09.772Z,100.00
2022-10-10T07:44:39.337Z,100.00
2022-10-10T07:47:11.562Z,100.00
2022-10-10T07:49:41.282Z,100.00
2022-10-10T07:52:10.835Z,100.00
2022-10-10T07:54:40.368Z,100.00
2022-10-10T07:57:09.849Z,100.00
2022-10-10T07:59:40.685Z,100.00
2022-10-10T08:02:13.151Z,100.00
2022-10-10T08:04:43.119Z,100.00
2022-10-10T08:07:12.758Z,100.00
2022-10-10T08:09:42.519Z,100.00
2022-10-10T08:12:12.073Z,100.00
2022-10-10T08:14:41.678Z,100.00
2022-10-10T08:17:13.884Z,100.00
2022-10-10T08:19:43.434Z,100.00
2022-10-10T08:22:13.048Z,100.00
2022-10-10T08:24:42.680Z,100.00
2022-10-10T08:27:12.241Z,100.00
2022-10-10T08:29:41.840Z,100.00
2022-10-10T08:32:13.976Z,100.00
2022-10-10T08:34:43.599Z,100.00
2022-10-10T08:37:13.140Z,100.00
2022-10-10T08:39:42.898Z,100.00
2022-10-10T08:42:16.572Z,100.00
2022-10-10T08:44:49.276Z,100.00
2022-10-10T08:47:23.227Z,100.00
2022-10-10T08:49:54.723Z,100.00
2022-10-10T08:52:35.093Z,100.00
2022-10-10T08:55:09.061Z,99.90
2022-10-10T08:57:44.309Z,99.79
2022-10-10T09:00:19.114Z,99.88
2022-10-10T09:02:54.699Z,99.10
2022-10-10T09:05:32.796Z,99.47
2022-10-10T09:08:31.107Z,98.85
2022-10-10T09:11:05.182Z,97.91
2022-10-10T09:13:37.144Z,97.19
2022-10-10T09:16:09.642Z,96.43
2022-10-10T09:18:52.575Z,95.16
2022-10-10T09:21:25.496Z,94.34
2022-10-10T09:24:00.426Z,94.45
2022-10-10T09:26:32.156Z,94.91
2022-10-10T09:29:04.950Z,93.87
2022-10-10T09:31:37.000Z,94.94
2022-10-10T09:34:15.045Z,94.49
2022-10-10T09:36:45.062Z,93.74
2022-10-10T09:39:19.940Z,93.72
2022-10-10T09:41:54.769Z,93.09
2022-10-10T09:44:25.216Z,92.29
2022-10-10T09:46:55.290Z,91.71
2022-10-10T09:49:27.524Z,91.33
2022-10-10T09:51:57.069Z,91.72
2022-10-10T09:54:27.181Z,91.19
2022-10-10T09:56:59.194Z,91.79
2022-10-10T09:59:45.298Z,91.65
2022-10-10T10:02:17.716Z,90.82
2022-10-10T10:04:50.143Z,90.15
2022-10-10T10:07:29.505Z,90.50
2022-10-10T10:10:00.780Z,89.05
2022-10-10T10:12:33.211Z,88.89
2022-10-10T10:15:06.892Z,88.89
2022-10-10T10:17:36.496Z,88.99
2022-10-10T10:20:36.220Z,89.21
2022-10-10T10:23:06.297Z,89.75
2022-10-10T10:25:37.803Z,88.80
2022-10-10T10:28:23.055Z,88.29
2022-10-10T10:30:55.626Z,88.29
2022-10-10T10:33:40.902Z,88.07
2022-10-10T10:36:21.595Z,89.90
2022-10-10T10:38:55.130Z,89.49
2022-10-10T10:41:31.013Z,88.38
2022-10-10T10:44:08.856Z,88.54
2022-10-10T10:46:48.417Z,88.46
2022-10-10T10:49:21.792Z,89.82
2022-10-10T10:52:23.049Z,88.76
2022-10-10T10:55:10.214Z,87.80
2022-10-10T10:58:04.587Z,88.03
2022-10-10T11:01:24.136Z,87.75
2022-10-10T11:05:18.612Z,86.91
2022-10-10T11:07:19.037Z,87.39
2022-10-10T11:09:57.107Z,85.89
2022-10-10T11:12:42.982Z,86.28
2022-10-10T11:15:17.546Z,86.36
2022-10-10T11:17:51.357Z,86.41
2022-10-10T11:20:25.844Z,86.39
2022-10-10T11:23:00.092Z,85.95
2022-10-10T11:25:35.472Z,85.93
2022-10-10T11:28:08.207Z,86.91
2022-10-10T11:30:39.819Z,86.35
2022-10-10T11:33:14.279Z,86.19
2022-10-10T11:35:47.812Z,86.34
2022-10-10T11:38:21.891Z,86.62
2022-10-10T11:40:57.409Z,85.74
2022-10-10T11:43:32.935Z,86.29
2022-10-10T11:46:08.942Z,86.33
2022-10-10T11:48:44.734Z,86.36
2022-10-10T11:51:20.139Z,87.22
2022-10-10T11:53:51.702Z,87.34
2022-10-10T11:56:28.324Z,87.26
2022-10-10T11:59:00.132Z,87.93
2022-10-10T12:01:32.186Z,88.30
2022-10-10T12:04:01.724Z,87.32
2022-10-10T12:06:36.091Z,88.10
2022-10-10T12:09:10.977Z,88.67
2022-10-10T12:11:46.326Z,87.96
2022-10-10T12:14:18.449Z,88.29
2022-10-10T12:16:48.594Z,88.93
2022-10-10T12:19:21.186Z,89.04
2022-10-10T12:22:05.468Z,87.28
2022-10-10T12:24:42.377Z,87.40
2022-10-10T12:27:47.192Z,88.04
2022-10-10T12:30:24.782Z,88.18
2022-10-10T12:32:55.682Z,89.25
2022-10-10T12:35:46.139Z,88.78
2022-10-10T12:38:21.213Z,88.41
2022-10-10T12:41:09.831Z,88.37
2022-10-10T12:43:47.207Z,88.41
2022-10-10T12:46:23.897Z,88.79
2022-10-10T12:49:16.204Z,89.40
2022-10-10T12:51:46.093Z,88.73
2022-10-10T12:54:25.139Z,88.87
2022-10-10T12:57:01.680Z,88.52
2022-10-10T12:59:34.094Z,88.62
2022-10-10T13:02:07.272Z,90.13
2022-10-10T13:04:36.940Z,89.22
2022-10-10T13:07:06.726Z,89.20
2022-10-10T13:09:37.429Z,87.73
2022-10-10T13:12:08.660Z,87.51
2022-10-10T13:14:45.539Z,88.49
2022-10-10T13:17:24.347Z,87.66
2022-10-10T13:19:55.090Z,86.84
2022-10-10T13:22:25.468Z,86.39
2022-10-10T13:24:55.568Z,86.18
2022-10-10T13:27:27.132Z,85.22
2022-10-10T13:29:59.304Z,85.25
2022-10-10T13:32:30.810Z,86.13
2022-10-10T13:35:01.871Z,85.53
2022-10-10T13:37:32.188Z,85.50
2022-10-10T13:40:01.934Z,86.26
2022-10-10T13:42:34.888Z,87.02
2022-10-10T13:45:34.600Z,87.04
2022-10-10T13:48:23.216Z,86.30
2022-10-10T13:50:58.353Z,85.91
2022-10-10T13:53:35.727Z,86.36
2022-10-10T13:56:08.691Z,86.54
2022-10-10T13:58:43.648Z,86.72
2022-10-10T14:01:27.824Z,85.53
2022-10-10T14:04:00.097Z,85.25
2022-10-10T14:06:30.478Z,84.07
2022-10-10T14:09:06.966Z,83.34
2022-10-10T14:11:36.905Z,84.06
2022-10-10T14:14:09.560Z,85.39
2022-10-10T14:16:41.654Z,86.43
2022-10-10T14:19:17.958Z,84.69
2022-10-10T14:21:47.699Z,83.40
2022-10-10T14:24:17.401Z,84.58
2022-10-10T14:26:46.977Z,83.72
2022-10-10T14:29:18.083Z,84.57
2022-10-10T14:31:50.501Z,84.25
2022-10-10T14:34:20.272Z,85.00
2022-10-10T14:36:51.126Z,83.33
2022-10-10T14:39:21.920Z,83.90
2022-10-10T14:41:51.572Z,83.97
2022-10-10T14:44:21.148Z,83.42
2022-10-10T14:46:53.294Z,82.70
2022-10-10T14:49:23.894Z,83.84
2022-10-10T14:51:53.430Z,85.12
2022-10-10T14:54:22.971Z,84.33
2022-10-10T14:57:07.297Z,84.04
2022-10-10T14:59:46.046Z,84.33
2022-10-10T15:02:21.915Z,84.74
2022-10-10T15:04:51.937Z,83.62
2022-10-10T15:07:22.105Z,83.52
2022-10-10T15:10:27.452Z,84.09
2022-10-10T15:12:43.540Z,85.08
2022-10-10T15:15:15.003Z,85.01
2022-10-10T15:17:47.153Z,85.34
2022-10-10T15:20:16.755Z,85.91
2022-10-10T15:22:46.584Z,86.32
2022-10-10T15:25:16.140Z,88.05
2022-10-10T15:27:45.688Z,89.02
2022-10-10T15:30:15.937Z,90.58
2022-10-10T15:32:48.227Z,89.98
2022-10-10T15:35:19.403Z,90.44
2022-10-10T15:37:49.867Z,90.84
2022-10-10T15:40:21.939Z,91.86
2022-10-10T15:42:52.829Z,91.88
2022-10-10T15:45:51.013Z,91.86
2022-10-10T15:48:14.961Z,90.93
2022-10-10T15:50:44.773Z,91.81
2022-10-10T15:53:14.389Z,90.64
2022-10-10T15:55:45.051Z,89.95
2022-10-10T15:58:14.901Z,89.97
2022-10-10T16:00:46.207Z,90.11
2022-10-10T16:03:18.379Z,89.96
2022-10-10T16:05:48.048Z,90.13
2022-10-10T16:08:18.918Z,90.39
2022-10-10T16:10:48.449Z,90.49
2022-10-10T16:13:17.995Z,89.98
2022-10-10T16:15:47.610Z,89.62
2022-10-10T16:18:19.749Z,91.71
2022-10-10T16:20:49.288Z,90.76
2022-10-10T16:23:18.844Z,91.30
2022-10-10T16:25:48.395Z,91.75
2022-10-10T16:28:17.968Z,92.35
2022-10-10T16:30:47.635Z,92.32
2022-10-10T16:33:19.771Z,91.26
2022-10-10T16:35:49.341Z,91.81
2022-10-10T16:38:19.230Z,91.65
2022-10-10T16:40:48.784Z,92.95
2022-10-10T16:43:19.000Z,93.46
2022-10-10T16:45:49.191Z,94.49
2022-10-10T16:48:21.339Z,95.78
2022-10-10T16:50:50.879Z,96.74
2022-10-10T16:53:20.415Z,97.65
2022-10-10T16:55:49.997Z,98.81
2022-10-10T16:58:19.621Z,98.99
2022-10-10T17:00:49.146Z,99.69
2022-10-10T17:03:21.430Z,99.55
2022-10-10T17:05:51.313Z,100.00
2022-10-10T17:08:20.875Z,100.00
2022-10-10T17:10:50.397Z,100.00
2022-10-10T17:13:20.108Z,100.00
2022-10-10T17:15:49.632Z,100.00
2022-10-10T17:18:22.445Z,100.00
2022-10-10T17:20:52.027Z,100.00
2022-10-10T17:23:21.695Z,100.00
2022-10-10T17:25:51.231Z,100.00
2022-10-10T17:28:20.804Z,100.00
2022-10-10T17:30:52.028Z,100.00
2022-10-10T17:33:24.220Z,100.00
2022-10-10T17:35:53.783Z,100.00
2022-10-10T17:38:39.039Z,100.00
2022-10-10T17:41:12.213Z,100.00
2022-10-10T17:43:41.899Z,100.00
2022-10-10T17:46:34.922Z,100.00
2022-10-10T17:49:07.065Z,100.00
2022-10-10T17:51:36.992Z,100.00
2022-10-10T17:54:07.590Z,100.00
2022-10-10T17:56:37.752Z,100.00
2022-10-10T17:59:07.532Z,100.00
2022-10-10T18:01:37.503Z,100.00
2022-10-10T18:04:10.260Z,100.00
2022-10-10T18:06:40.295Z,100.00
2022-10-10T18:09:10.574Z,100.00
2022-10-10T18:11:40.089Z,100.00
2022-10-10T18:14:09.839Z,100.00
2022-10-10T18:16:39.468Z,100.00
2022-10-10T18:19:11.585Z,100.00
2022-10-10T18:21:41.145Z,100.00
2022-10-10T18:24:11.607Z,100.00
2022-10-10T18:26:41.191Z,100.00
2022-10-10T18:29:10.783Z,99.95
2022-10-10T18:31:40.841Z,99.78
2022-10-10T18:34:13.552Z,99.84
2022-10-10T18:36:44.192Z,99.36
2022-10-10T18:39:16.744Z,100.00
2022-10-10T18:41:46.315Z,100.00
2022-10-10T18:44:21.191Z,100.00
2022-10-10T18:46:52.160Z,100.00
2022-10-10T18:49:25.167Z,100.00
2022-10-10T18:51:54.748Z,100.00
2022-10-10T18:54:27.065Z,100.00
2022-10-10T18:56:56.606Z,100.00
2022-10-10T18:59:26.209Z,100.00
2022-10-10T19:01:55.839Z,100.00
2022-10-10T19:04:28.623Z,100.00
2022-10-10T19:06:58.206Z,100.00
2022-10-10T19:09:28.001Z,100.00
2022-10-10T19:11:57.581Z,99.54
2022-10-10T19:14:27.397Z,99.62
2022-10-10T19:16:56.936Z,100.00
2022-10-10T19:19:29.207Z,98.94
2022-10-10T19:21:58.747Z,98.58
2022-10-10T19:24:29.087Z,98.12
2022-10-10T19:26:59.402Z,97.56
2022-10-10T19:29:29.053Z,97.63
2022-10-10T19:31:58.788Z,97.32
2022-10-10T19:34:30.921Z,97.24
2022-10-10T19:37:00.524Z,97.29
2022-10-10T19:39:30.090Z,97.24
2022-10-10T19:41:59.812Z,97.18
2022-10-10T19:44:29.428Z,97.43
2022-10-10T19:47:00.442Z,97.26
2022-10-10T19:49:33.258Z,97.65
2022-10-10T19:52:02.784Z,97.31
2022-10-10T19:54:32.415Z,97.20
2022-10-10T19:57:01.994Z,97.45
2022-10-10T19:59:31.750Z,97.19
2022-10-10T20:02:01.361Z,97.76
2022-10-10T20:04:33.736Z,97.81
2022-10-10T20:07:03.326Z,98.02
2022-10-10T20:09:33.026Z,98.24
2022-10-10T20:12:02.760Z,98.01
2022-10-10T20:14:32.401Z,98.46
2022-10-10T20:17:01.940Z,98.74
2022-10-10T20:19:34.209Z,98.86
2022-10-10T20:22:03.816Z,99.15
2022-10-10T20:24:34.397Z,99.66
2022-10-10T20:27:04.009Z,99.80
2022-10-10T20:29:33.532Z,100.00
2022-10-10T20:32:03.045Z,100.00
2022-10-10T20:34:35.284Z,100.00
2022-10-10T20:37:04.896Z,100.00
2022-10-10T20:39:34.455Z,100.00
2022-10-10T20:42:04.022Z,100.00
2022-10-10T20:44:33.638Z,100.00
2022-10-10T20:47:03.391Z,100.00
2022-10-10T20:49:35.526Z,100.00
2022-10-10T20:52:05.113Z,100.00
2022-10-10T20:54:36.193Z,100.00
2022-10-10T20:57:05.819Z,100.00
2022-10-10T20:59:35.335Z,100.00
2022-10-10T21:02:04.936Z,100.00
2022-10-10T21:04:37.571Z,100.00
2022-10-10T21:07:07.630Z,100.00
2022-10-10T21:09:37.379Z,100.00
2022-10-10T21:12:07.037Z,100.00
2022-10-10T21:14:36.559Z,100.00
2022-10-10T21:17:06.059Z,100.00
2022-10-10T21:19:38.230Z,100.00
2022-10-10T21:22:07.727Z,100.00
2022-10-10T21:24:37.337Z,100.00
2022-10-10T21:27:07.122Z,100.00
2022-10-10T21:29:36.713Z,100.00
2022-10-10T21:32:06.264Z,100.00
2022-10-10T21:34:38.627Z,100.00
2022-10-10T21:37:08.144Z,100.00
2022-10-10T21:39:38.566Z,100.00
2022-10-10T21:42:08.205Z,100.00
2022-10-10T21:44:38.648Z,100.00
2022-10-10T21:47:08.298Z,100.00
2022-10-10T21:49:40.539Z,100.00
2022-10-10T21:52:10.095Z,100.00
2022-10-10T21:54:39.696Z,100.00
2022-10-10T21:57:09.856Z,100.00
2022-10-10T21:59:39.411Z,100.00
2022-10-10T22:02:08.968Z,100.00
2022-10-10T22:04:41.224Z,100.00
2022-10-10T22:07:10.759Z,100.00
2022-10-10T22:09:40.384Z,100.00
2022-10-10T22:12:10.308Z,100.00
2022-10-10T22:14:39.873Z,100.00
2022-10-10T22:17:09.401Z,100.00
2022-10-10T22:19:41.625Z,100.00
2022-10-10T22:22:11.157Z,100.00
2022-10-10T22:24:40.736Z,100.00
2022-10-10T22:27:10.286Z,100.00
2022-10-10T22:29:39.836Z,100.00
2022-10-10T22:32:09.393Z,100.00
2022-10-10T22:34:41.717Z,100.00
2022-10-10T22:37:11.268Z,100.00
2022-10-10T22:39:40.834Z,100.00
2022-10-10T22:42:10.362Z,100.00
2022-10-10T22:44:39.977Z,100.00
2022-10-10T22:47:09.596Z,100.00
2022-10-10T22:49:41.864Z,100.00
2022-10-10T22:52:12.532Z,100.00
2022-10-10T22:54:42.509Z,100.00
2022-10-10T22:57:12.163Z,100.00
2022-10-10T22:59:41.675Z,100.00
2022-10-10T23:02:11.228Z,100.00
2022-10-10T23:04:43.418Z,100.00
2022-10-10T23:07:13.860Z,100.00
2022-10-10T23:09:43.417Z,100.00
2022-10-10T23:12:12.934Z,100.00
2022-10-10T23:14:42.497Z,100.00
2022-10-10T23:17:12.047Z,100.00
2022-10-10T23:19:44.176Z,100.00
2022-10-10T23:22:14.004Z,100.00
2022-10-10T23:24:43.885Z,100.00
2022-10-10T23:27:13.445Z,100.00
2022-10-10T23:29:44.833Z,100.00
2022-10-10T23:32:14.409Z,100.00
2022-10-10T23:34:46.572Z,100.00
2022-10-10T23:37:16.088Z,100.00
2022-10-10T23:39:46.215Z,100.00
2022-10-10T23:42:15.771Z,100.00
2022-10-10T23:44:45.398Z,100.00
2022-10-10T23:47:14.949Z,100.00
2022-10-10T23:49:47.654Z,100.00
2022-10-10T23:52:17.248Z,100.00
2022-10-10T23:54:46.809Z,100.00
2022-10-10T23:57:16.380Z,100.00
2022-10-10T23:59:45.982Z,100.00
